createdAt,value
2023-08-05T00:01:38.433Z,101799.31
2023-08-05T00:04:05.168Z,101791.41
2023-08-05T00:06:31.661Z,101784.78
2023-08-05T00:08:58.455Z,101784.81
2023-08-05T00:11:24.959Z,101792.88
2023-08-05T00:13:51.668Z,101784.69
2023-08-05T00:16:18.464Z,101775.91
2023-08-05T00:18:45.185Z,101786.91
2023-08-05T00:21:11.763Z,101784.09
2023-08-05T00:23:38.241Z,101782.84
2023-08-05T00:26:04.923Z,101781.91
2023-08-05T00:28:31.530Z,101775.06
2023-08-05T00:30:58.275Z,101773.94
2023-08-05T00:33:24.893Z,101759.28
2023-08-05T00:35:51.372Z,101762.94
2023-08-05T00:38:17.878Z,101762.03
2023-08-05T00:40:45.757Z,101758.97
2023-08-05T00:43:12.158Z,101768.25
2023-08-05T00:45:38.786Z,101764.84
2023-08-05T00:48:05.743Z,101750.31
2023-08-05T00:50:33.582Z,101744.44
2023-08-05T00:53:00.402Z,101750.66
2023-08-05T00:55:27.646Z,101746.28
2023-08-05T00:57:57.966Z,101744.94
2023-08-05T01:00:24.735Z,101740.16
2023-08-05T01:02:51.246Z,101733.94
2023-08-05T01:05:19.988Z,101724.56
2023-08-05T01:07:46.671Z,101732.50
2023-08-05T01:10:13.309Z,101721.88
2023-08-05T01:12:42.425Z,101720.78
2023-08-05T01:15:09.495Z,101721.19
2023-08-05T01:17:36.193Z,101717.41
2023-08-05T01:20:05.528Z,101722.16
2023-08-05T01:22:41.239Z,101723.25
2023-08-05T01:25:32.436Z,101719.34
2023-08-05T01:28:01.480Z,101714.97
2023-08-05T01:30:28.742Z,101718.63
2023-08-05T01:32:56.472Z,101717.53
2023-08-05T01:35:23.939Z,101718.88
2023-08-05T01:37:51.279Z,101724.38
2023-08-05T01:40:18.120Z,101722.28
2023-08-05T01:42:44.614Z,101719.22
2023-08-05T01:45:11.260Z,101711.91
2023-08-05T01:47:38.316Z,101717.75
2023-08-05T01:50:05.420Z,101708.44
2023-08-05T01:52:31.907Z,101710.06
2023-08-05T01:54:58.578Z,101697.03
2023-08-05T01:57:25.060Z,101701.16
2023-08-05T01:59:51.555Z,101705.78
2023-08-05T02:02:18.053Z,101705.22
2023-08-05T02:04:44.589Z,101720.13
2023-08-05T02:07:11.302Z,101717.31
2023-08-05T02:09:37.796Z,101705.97
2023-08-05T02:12:04.485Z,101705.59
2023-08-05T02:14:30.974Z,101703.16
2023-08-05T02:16:57.550Z,101706.81
2023-08-05T02:19:24.366Z,101707.53
2023-08-05T02:21:50.877Z,101706.69
2023-08-05T02:24:17.526Z,101700.84
2023-08-05T02:26:44.001Z,101692.78
2023-08-05T02:29:10.567Z,101697.31
2023-08-05T02:31:37.024Z,101697.31
2023-08-05T02:34:03.520Z,101697.06
2023-08-05T02:36:30.186Z,101690.94
2023-08-05T02:38:56.688Z,101698.41
2023-08-05T02:41:23.191Z,101697.59
2023-08-05T02:43:52.887Z,101693.22
2023-08-05T02:46:19.456Z,101694.53
2023-08-05T02:48:46.178Z,101698.06
2023-08-05T02:51:12.771Z,101695.25
2023-08-05T02:53:43.556Z,101692.72
2023-08-05T02:56:10.093Z,101696.72
2023-08-05T02:58:36.591Z,101687.94
2023-08-05T03:01:10.012Z,101689.78
2023-08-05T03:03:38.343Z,101685.88
2023-08-05T03:06:05.046Z,101684.66
2023-08-05T03:08:31.837Z,101679.81
2023-08-05T03:11:02.445Z,101677.59
2023-08-05T03:13:28.981Z,101660.16
2023-08-05T03:15:55.908Z,101665.53
2023-08-05T03:18:22.784Z,101649.69
2023-08-05T03:20:49.590Z,101651.63
2023-08-05T03:23:23.632Z,101651.50
2023-08-05T03:25:50.214Z,101634.69
2023-08-05T03:28:16.834Z,101635.63
2023-08-05T03:30:43.468Z,101627.50
2023-08-05T03:33:10.037Z,101619.44
2023-08-05T03:35:36.518Z,101617.97
2023-08-05T03:38:03.949Z,101612.25
2023-08-05T03:40:30.506Z,101612.75
2023-08-05T03:42:57.004Z,101617.53
2023-08-05T03:45:23.436Z,101616.91
2023-08-05T03:47:57.324Z,101626.97
2023-08-05T03:50:30.265Z,101612.25
2023-08-05T03:52:57.121Z,101620.44
2023-08-05T03:55:23.687Z,101618.88
2023-08-05T03:57:50.673Z,101618.94
2023-08-05T04:00:18.200Z,101619.81
2023-08-05T04:02:45.313Z,101609.84
2023-08-05T04:05:11.916Z,101608.88
2023-08-05T04:07:38.624Z,101608.84
2023-08-05T04:10:07.245Z,101600.41
2023-08-05T04:12:36.673Z,101606.03
2023-08-05T04:15:04.528Z,101603.84
2023-08-05T04:17:31.257Z,101605.06
2023-08-05T04:19:58.013Z,101597.28
2023-08-05T04:22:26.506Z,101590.94
2023-08-05T04:24:54.322Z,101590.09
2023-08-05T04:27:23.117Z,101585.81
2023-08-05T04:29:50.216Z,101586.81
2023-08-05T04:32:17.058Z,101572.81
2023-08-05T04:34:45.952Z,101575.34
2023-08-05T04:37:30.596Z,101568.66
2023-08-05T04:39:57.092Z,101562.94
2023-08-05T04:42:23.888Z,101557.31
2023-08-05T04:44:50.371Z,101550.47
2023-08-05T04:47:16.915Z,101555.13
2023-08-05T04:49:44.686Z,101550.22
2023-08-05T04:52:13.235Z,101549.72
2023-08-05T04:54:47.297Z,101548.28
2023-08-05T04:57:14.180Z,101552.56
2023-08-05T04:59:43.602Z,101554.75
2023-08-05T05:02:10.239Z,101555.84
2023-08-05T05:04:36.746Z,101560.75
2023-08-05T05:07:09.246Z,101556.72
2023-08-05T05:09:35.982Z,101553.66
2023-08-05T05:12:03.037Z,101548.19
2023-08-05T05:14:32.806Z,101544.16
2023-08-05T05:16:59.674Z,101543.78
2023-08-05T05:19:26.179Z,101548.53
2023-08-05T05:21:55.665Z,101540.84
2023-08-05T05:24:22.687Z,101538.56
2023-08-05T05:26:49.529Z,101542.94
2023-08-05T05:29:16.128Z,101534.63
2023-08-05T05:31:42.666Z,101534.53
2023-08-05T05:34:09.201Z,101533.28
2023-08-05T05:36:35.829Z,101533.78
2023-08-05T05:39:02.331Z,101526.00
2023-08-05T05:41:29.060Z,101529.25
2023-08-05T05:43:57.224Z,101527.56
2023-08-05T05:46:24.119Z,101515.75
2023-08-05T05:48:50.754Z,101517.31
2023-08-05T05:51:17.479Z,101503.06
2023-08-05T05:53:52.060Z,101513.91
2023-08-05T05:56:24.587Z,101511.94
2023-08-05T05:58:52.081Z,101510.25
2023-08-05T06:01:18.644Z,101500.88
2023-08-05T06:03:45.514Z,101498.53
2023-08-05T06:06:12.307Z,101500.78
2023-08-05T06:08:38.745Z,101497.44
2023-08-05T06:11:05.356Z,101510.25
2023-08-05T06:13:32.270Z,101501.09
2023-08-05T06:15:58.891Z,101496.25
2023-08-05T06:18:25.628Z,101499.78
2023-08-05T06:20:52.169Z,101501.38
2023-08-05T06:23:18.822Z,101496.00
2023-08-05T06:25:47.020Z,101505.63
2023-08-05T06:28:13.916Z,101502.94
2023-08-05T06:30:47.255Z,101510.22
2023-08-05T06:33:14.719Z,101508.00
2023-08-05T06:35:41.828Z,101505.44
2023-08-05T06:38:08.609Z,101503.63
2023-08-05T06:40:35.141Z,101507.38
2023-08-05T06:43:01.851Z,101504.41
2023-08-05T06:45:28.446Z,101502.22
2023-08-05T06:47:55.005Z,101501.09
2023-08-05T06:50:21.499Z,101502.22
2023-08-05T06:52:48.008Z,101507.44
2023-08-05T06:55:18.283Z,101508.16
2023-08-05T06:57:50.075Z,101501.09
2023-08-05T07:00:18.023Z,101494.75
2023-08-05T07:02:44.625Z,101486.06
2023-08-05T07:05:11.342Z,101479.72
2023-08-05T07:07:38.266Z,101479.97
2023-08-05T07:10:09.132Z,101481.81
2023-08-05T07:12:36.201Z,101474.34
2023-08-05T07:15:03.839Z,101479.06
2023-08-05T07:17:30.626Z,101478.53
2023-08-05T07:19:57.072Z,101478.00
2023-08-05T07:22:23.591Z,101476.63
2023-08-05T07:24:50.265Z,101468.91
2023-08-05T07:27:16.804Z,101463.72
2023-08-05T07:29:43.927Z,101452.56
2023-08-05T07:32:10.643Z,101449.34
2023-08-05T07:34:37.180Z,101451.38
2023-08-05T07:37:03.816Z,101439.00
2023-08-05T07:39:34.818Z,101442.53
2023-08-05T07:42:03.698Z,101433.28
2023-08-05T07:44:32.440Z,101442.91
2023-08-05T07:47:02.241Z,101433.88
2023-08-05T07:49:28.838Z,101434.91
2023-08-05T07:51:55.395Z,101433.53
2023-08-05T07:54:22.901Z,101430.59
2023-08-05T07:56:49.931Z,101427.78
2023-08-05T07:59:18.488Z,101422.31
2023-08-05T08:01:47.248Z,101430.25
2023-08-05T08:04:17.202Z,101420.63
2023-08-05T08:06:47.606Z,101416.47
2023-08-05T08:09:19.070Z,101410.16
2023-08-05T08:11:50.316Z,101410.53
2023-08-05T08:14:17.207Z,101411.13
2023-08-05T08:17:44.393Z,101408.88
2023-08-05T08:19:53.989Z,101405.47
2023-08-05T08:22:49.377Z,101399.53
2023-08-05T08:25:15.950Z,101401.38
2023-08-05T08:27:56.607Z,101391.63
2023-08-05T08:30:22.994Z,101380.00
2023-08-05T08:32:49.677Z,101385.09
2023-08-05T08:35:19.800Z,101378.41
2023-08-05T08:40:52.742Z,101376.94
2023-08-05T08:43:20.929Z,101378.50
2023-08-05T08:46:00.455Z,101367.69
2023-08-05T08:48:29.184Z,101359.19
2023-08-05T08:50:56.911Z,101356.53
2023-08-05T08:56:10.544Z,101337.53
2023-08-05T08:58:43.278Z,101333.41
2023-08-05T09:01:13.079Z,101326.88
2023-08-05T09:03:43.067Z,101326.13
2023-08-05T09:06:09.853Z,101327.94
2023-08-05T09:08:38.428Z,101321.34
2023-08-05T09:11:05.457Z,101326.38
2023-08-05T09:13:32.202Z,101322.03
2023-08-05T09:15:58.873Z,101307.50
2023-08-05T09:18:25.319Z,101316.44
2023-08-05T09:20:51.889Z,101310.72
2023-08-05T09:23:18.401Z,101311.88
2023-08-05T09:25:49.293Z,101310.94
2023-08-05T09:28:29.784Z,101310.63
2023-08-05T09:31:12.913Z,101307.09
2023-08-05T09:33:41.444Z,101303.88
2023-08-05T09:36:12.525Z,101294.72
2023-08-05T09:38:42.934Z,101292.44
2023-08-05T09:41:09.666Z,101281.28
2023-08-05T09:43:40.867Z,101287.75
2023-08-05T09:46:12.882Z,101277.88
2023-08-05T09:48:43.633Z,101276.13
2023-08-05T09:51:17.070Z,101277.22
2023-08-05T09:53:44.522Z,101268.91
2023-08-05T09:56:13.804Z,101264.97
2023-08-05T09:58:40.493Z,101266.78
2023-08-05T10:01:18.051Z,101261.41
2023-08-05T10:03:45.151Z,101253.63
2023-08-05T10:06:12.910Z,101254.22
2023-08-05T10:08:41.658Z,101258.59
2023-08-05T10:11:09.095Z,101246.16
2023-08-05T10:13:42.538Z,101240.38
2023-08-05T10:16:10.739Z,101238.34
2023-08-05T10:18:39.646Z,101235.19
2023-08-05T10:21:08.834Z,101226.00
2023-08-05T10:23:36.709Z,101228.56
2023-08-05T10:26:04.401Z,101219.94
2023-08-05T10:28:37.358Z,101217.78
2023-08-05T10:31:05.442Z,101201.72
2023-08-05T10:33:31.956Z,101202.28
2023-08-05T10:36:07.446Z,101197.13
2023-08-05T10:38:43.653Z,101189.88
2023-08-05T10:41:11.545Z,101184.28
2023-08-05T10:43:42.832Z,101178.22
2023-08-05T10:46:09.344Z,101176.91
2023-08-05T10:48:45.789Z,101169.88
2023-08-05T10:51:13.399Z,101172.22
2023-08-05T10:53:43.748Z,101166.47
2023-08-05T10:56:14.507Z,101158.00
2023-08-05T10:58:51.032Z,101159.69
2023-08-05T11:01:18.747Z,101145.28
2023-08-05T11:03:53.449Z,101146.16
2023-08-05T11:06:25.748Z,101147.16
2023-08-05T11:08:53.320Z,101145.28
2023-08-05T11:11:20.444Z,101143.78
2023-08-05T11:13:49.083Z,101148.13
2023-08-05T11:16:17.930Z,101172.38
2023-08-05T11:18:56.806Z,101171.38
2023-08-05T11:21:24.110Z,101166.53
2023-08-05T11:23:50.791Z,101178.38
2023-08-05T11:26:23.641Z,101169.34
2023-08-05T11:28:50.417Z,101166.28
2023-08-05T11:31:24.696Z,101151.72
2023-08-05T11:33:52.703Z,101154.00
2023-08-05T11:36:29.705Z,101147.66
2023-08-05T11:39:01.689Z,101147.13
2023-08-05T11:41:29.328Z,101142.88
2023-08-05T11:43:56.686Z,101141.72
2023-08-05T11:46:26.985Z,101139.03
2023-08-05T11:49:14.298Z,101129.25
2023-08-05T11:51:54.571Z,101120.19
2023-08-05T11:54:25.153Z,101110.81
2023-08-05T11:56:51.610Z,101108.13
2023-08-05T11:59:18.100Z,101105.97
2023-08-05T12:01:44.849Z,101094.19
2023-08-05T12:04:12.454Z,101095.06
2023-08-05T12:06:38.887Z,101092.06
2023-08-05T12:09:06.138Z,101087.50
2023-08-05T12:11:45.449Z,101095.06
2023-08-05T12:14:13.425Z,101098.59
2023-08-05T12:16:39.931Z,101097.03
2023-08-05T12:19:06.856Z,101092.66
2023-08-05T12:23:59.990Z,101085.56
2023-08-05T12:26:28.068Z,101071.44
2023-08-05T12:28:54.656Z,101084.50
2023-08-05T12:31:21.445Z,101092.19
2023-08-05T12:33:48.038Z,101092.34
2023-08-05T12:36:14.699Z,101096.50
2023-08-05T12:38:41.245Z,101098.03
2023-08-05T12:41:07.702Z,101086.34
2023-08-05T12:43:34.231Z,101102.09
2023-08-05T12:46:01.011Z,101100.25
2023-08-05T12:48:27.974Z,101104.91
2023-08-05T12:50:54.614Z,101101.28
2023-08-05T12:53:21.170Z,101090.13
2023-08-05T12:55:47.765Z,101084.19
2023-08-05T12:58:14.402Z,101084.25
2023-08-05T13:00:41.105Z,101066.88
2023-08-05T13:03:07.718Z,101078.22
2023-08-05T13:05:34.256Z,101083.16
2023-08-05T13:08:00.669Z,101077.25
2023-08-05T13:10:27.278Z,101094.81
2023-08-05T13:12:53.780Z,101089.59
2023-08-05T13:15:20.450Z,101097.81
2023-08-05T13:17:46.955Z,101097.97
2023-08-05T13:20:13.618Z,101099.69
2023-08-05T13:22:40.287Z,101099.09
2023-08-05T13:25:06.954Z,101090.47
2023-08-05T13:27:34.432Z,101078.06
2023-08-05T13:30:00.887Z,101082.16
2023-08-05T13:32:27.519Z,101071.69
2023-08-05T13:34:54.096Z,101071.13
2023-08-05T13:37:20.703Z,101073.13
2023-08-05T13:39:51.240Z,101066.06
2023-08-05T13:42:17.873Z,101063.50
2023-08-05T13:44:44.310Z,101063.38
2023-08-05T13:47:10.889Z,101050.91
2023-08-05T13:49:37.569Z,101052.63
2023-08-05T13:52:04.478Z,101035.22
2023-08-05T13:54:30.989Z,101033.97
2023-08-05T13:56:57.636Z,101030.81
2023-08-05T13:59:24.116Z,101028.84
2023-08-05T14:01:50.981Z,101022.78
2023-08-05T14:04:18.689Z,101018.41
2023-08-05T14:06:45.298Z,101019.78
2023-08-05T14:09:11.834Z,101014.97
2023-08-05T14:11:38.756Z,101015.41
2023-08-05T14:14:05.320Z,101017.56
2023-08-05T14:16:36.528Z,101015.84
2023-08-05T14:19:03.307Z,101003.69
2023-08-05T14:21:31.976Z,101004.81
2023-08-05T14:23:58.462Z,101004.81
2023-08-05T14:26:25.076Z,101011.91
2023-08-05T14:28:51.743Z,100996.63
2023-08-05T14:31:18.321Z,100990.13
2023-08-05T14:33:44.997Z,100994.94
2023-08-05T14:36:13.204Z,100996.50
2023-08-05T14:38:40.026Z,100992.66
2023-08-05T14:41:08.416Z,100990.09
2023-08-05T14:43:34.945Z,100991.97
2023-08-05T14:46:05.072Z,100987.59
2023-08-05T14:48:31.735Z,100985.28
2023-08-05T14:51:02.471Z,100971.84
2023-08-05T14:53:29.486Z,100973.44
2023-08-05T14:56:00.338Z,100962.56
2023-08-05T14:58:26.963Z,100961.59
2023-08-05T15:00:53.440Z,100960.03
2023-08-05T15:03:20.100Z,100953.28
2023-08-05T15:05:46.789Z,100958.09
2023-08-05T15:08:13.362Z,100952.31
2023-08-05T15:10:39.830Z,100945.94
2023-08-05T15:13:06.437Z,100950.19
2023-08-05T15:15:32.866Z,100949.75
2023-08-05T15:17:59.560Z,100944.97
2023-08-05T15:20:26.171Z,100943.84
2023-08-05T15:22:52.771Z,100939.88
2023-08-05T15:25:19.294Z,100934.53
2023-08-05T15:27:45.811Z,100935.81
2023-08-05T15:30:12.480Z,100929.59
2023-08-05T15:32:39.372Z,100925.63
2023-08-05T15:35:08.184Z,100922.25
2023-08-05T15:37:34.763Z,100915.72
2023-08-05T15:40:01.250Z,100921.94
2023-08-05T15:42:27.915Z,100909.31
2023-08-05T15:44:54.377Z,100911.81
2023-08-05T15:47:20.970Z,100902.59
2023-08-05T15:49:47.534Z,100904.41
2023-08-05T15:52:14.270Z,100902.97
2023-08-05T15:54:43.009Z,100899.84
2023-08-05T15:57:11.510Z,100892.00
2023-08-05T15:59:38.048Z,100889.63
2023-08-05T16:02:04.892Z,100874.81
2023-08-05T16:04:37.963Z,100881.88
2023-08-05T16:07:06.154Z,100866.28
2023-08-05T16:09:32.768Z,100870.50
2023-08-05T16:11:59.191Z,100863.47
2023-08-05T16:14:25.643Z,100864.59
2023-08-05T16:16:52.098Z,100853.00
2023-08-05T16:19:20.880Z,100859.53
2023-08-05T16:21:48.703Z,100860.38
2023-08-05T16:24:15.302Z,100849.44
2023-08-05T16:26:43.418Z,100835.34
2023-08-05T16:29:10.152Z,100840.03
2023-08-05T16:31:36.702Z,100826.06
2023-08-05T16:34:03.331Z,100819.59
2023-08-05T16:36:29.929Z,100813.38
2023-08-05T16:38:56.700Z,100816.16
2023-08-05T16:41:23.273Z,100809.09
2023-08-05T16:43:50.112Z,100805.41
2023-08-05T16:46:17.965Z,100799.41
2023-08-05T16:48:44.477Z,100807.97
2023-08-05T16:51:11.067Z,100802.03
2023-08-05T16:53:37.643Z,100810.94
2023-08-05T16:56:05.324Z,100809.25
2023-08-05T16:58:32.358Z,100807.38
2023-08-05T17:00:59.479Z,100805.72
2023-08-05T17:03:26.160Z,100800.34
2023-08-05T17:05:53.695Z,100802.03
2023-08-05T17:08:21.165Z,100790.91
2023-08-05T17:10:47.884Z,100799.28
2023-08-05T17:13:14.492Z,100803.63
2023-08-05T17:15:48.707Z,100798.09
2023-08-05T17:18:15.942Z,100803.47
2023-08-05T17:20:42.963Z,100797.97
2023-08-05T17:23:09.851Z,100795.19
2023-08-05T17:25:41.203Z,100792.06
2023-08-05T17:28:08.371Z,100787.66
2023-08-05T17:30:37.948Z,100779.22
2023-08-05T17:33:05.263Z,100777.53
2023-08-05T17:35:33.047Z,100782.28
2023-08-05T17:38:04.306Z,100777.16
2023-08-05T17:40:39.264Z,100782.97
2023-08-05T17:43:05.870Z,100782.28
2023-08-05T17:45:32.877Z,100781.91
2023-08-05T17:47:59.474Z,100784.59
2023-08-05T17:50:26.427Z,100779.28
2023-08-05T17:52:53.795Z,100783.13
2023-08-05T17:55:20.311Z,100783.72
2023-08-05T17:57:49.122Z,100775.66
2023-08-05T18:00:16.156Z,100772.72
2023-08-05T18:02:42.810Z,100754.75
2023-08-05T18:05:09.559Z,100759.59
2023-08-05T18:07:36.065Z,100752.38
2023-08-05T18:10:05.765Z,100757.06
2023-08-05T18:12:38.215Z,100759.34
2023-08-05T18:15:05.244Z,100756.50
2023-08-05T18:17:31.690Z,100745.75
2023-08-05T18:20:04.338Z,100746.25
2023-08-05T18:22:36.612Z,100750.81
2023-08-05T18:25:08.721Z,100743.06
2023-08-05T18:27:36.249Z,100741.41
2023-08-05T18:30:02.853Z,100742.53
2023-08-05T18:32:29.486Z,100740.56
2023-08-05T18:34:55.980Z,100743.34
2023-08-05T18:37:22.710Z,100739.41
2023-08-05T18:39:49.398Z,100736.19
2023-08-05T18:42:16.011Z,100738.78
2023-08-05T18:44:42.747Z,100730.03
2023-08-05T18:47:11.592Z,100732.06
2023-08-05T18:49:38.086Z,100727.00
2023-08-05T18:52:05.144Z,100735.59
2023-08-05T18:54:42.877Z,100730.22
2023-08-05T18:57:11.795Z,100727.94
2023-08-05T18:59:45.649Z,100725.56
2023-08-05T19:02:12.228Z,100723.31
2023-08-05T19:04:38.711Z,100726.72
2023-08-05T19:07:13.122Z,100723.31
2023-08-05T19:09:45.552Z,100712.28
2023-08-05T19:12:12.567Z,100725.72
2023-08-05T19:14:39.665Z,100715.75
2023-08-05T19:17:13.500Z,100715.19
2023-08-05T19:19:40.271Z,100712.75
2023-08-05T19:22:07.709Z,100712.06
2023-08-05T19:24:40.584Z,100710.66
2023-08-05T19:27:08.622Z,100706.97
2023-08-05T19:29:35.102Z,100706.28
2023-08-05T19:32:01.618Z,100704.06
2023-08-05T19:34:34.017Z,100704.19
2023-08-05T19:37:01.778Z,100701.91
2023-08-05T19:39:36.703Z,100699.84
2023-08-05T19:42:03.621Z,100695.59
2023-08-05T19:44:31.571Z,100698.75
2023-08-05T19:46:58.227Z,100700.44
2023-08-05T19:49:25.143Z,100689.84
2023-08-05T19:51:54.839Z,100690.53
2023-08-05T19:54:21.374Z,100687.16
2023-08-05T19:56:47.893Z,100694.84
2023-08-05T19:59:14.444Z,100691.44
2023-08-05T20:01:41.146Z,100687.22
2023-08-05T20:04:10.861Z,100690.72
2023-08-05T20:06:37.341Z,100681.56
2023-08-05T20:09:04.056Z,100685.38
2023-08-05T20:11:30.591Z,100681.41
2023-08-05T20:13:57.354Z,100689.75
2023-08-05T20:16:30.209Z,100673.81
2023-08-05T20:18:56.662Z,100690.59
2023-08-05T20:21:29.578Z,100681.31
2023-08-05T20:23:59.473Z,100679.63
2023-08-05T20:26:26.045Z,100677.63
2023-08-05T20:28:54.770Z,100675.78
2023-08-05T20:31:21.669Z,100675.47
2023-08-05T20:33:48.203Z,100654.88
2023-08-05T20:36:14.834Z,100657.28
2023-08-05T20:38:41.493Z,100652.22
2023-08-05T20:41:08.004Z,100665.91
2023-08-05T20:43:34.534Z,100658.00
2023-08-05T20:46:03.612Z,100657.31
2023-08-05T20:48:30.228Z,100661.81
2023-08-05T20:50:57.527Z,100651.09
2023-08-05T20:53:24.090Z,100660.69
2023-08-05T20:55:51.895Z,100658.84
2023-08-05T20:58:27.100Z,100663.91
2023-08-05T21:00:57.980Z,100659.69
2023-08-05T21:06:05.415Z,100658.25
2023-08-05T21:08:32.319Z,100648.66
2023-08-05T21:11:02.699Z,100646.13
2023-08-05T21:13:39.704Z,100645.84
2023-08-05T21:16:07.766Z,100636.78
2023-08-05T21:18:38.324Z,100639.94
2023-08-05T21:21:05.041Z,100632.72
2023-08-05T21:23:33.876Z,100631.06
2023-08-05T21:26:09.016Z,100626.97
2023-08-05T21:28:35.548Z,100633.47
2023-08-05T21:31:09.263Z,100631.47
2023-08-05T21:33:36.362Z,100630.78
2023-08-05T21:36:03.814Z,100626.56
2023-08-05T21:38:30.550Z,100631.78
2023-08-05T21:41:07.158Z,100624.75
2023-08-05T21:43:33.874Z,100622.19
2023-08-05T21:46:00.869Z,100618.22
2023-08-05T21:48:37.484Z,100610.16
2023-08-05T21:51:04.430Z,100622.19
2023-08-05T21:53:34.156Z,100610.16
2023-08-05T21:56:06.567Z,100611.69
2023-08-05T21:58:38.136Z,100616.41
2023-08-05T22:03:48.812Z,100607.22
2023-08-05T22:06:15.696Z,100605.38
2023-08-05T22:08:42.307Z,100607.47
2023-08-05T22:11:12.915Z,100600.13
2023-08-05T22:13:41.509Z,100598.16
2023-08-05T22:16:08.927Z,100599.00
2023-08-05T22:18:35.713Z,100591.78
2023-08-05T22:21:02.665Z,100588.97
2023-08-05T22:23:31.582Z,100578.22
2023-08-05T22:26:02.832Z,100579.22
2023-08-05T22:28:29.549Z,100581.88
2023-08-05T22:30:58.068Z,100576.53
2023-08-05T22:33:24.980Z,100574.00
2023-08-05T22:35:53.877Z,100567.66
2023-08-05T22:38:20.518Z,100571.34
2023-08-05T22:40:47.118Z,100567.81
2023-08-05T22:43:13.773Z,100555.94
2023-08-05T22:45:40.561Z,100564.00
2023-08-05T22:48:10.385Z,100555.94
2023-08-05T22:50:41.400Z,100545.88
2023-08-05T22:53:08.121Z,100558.75
2023-08-05T22:55:36.688Z,100557.22
2023-08-05T22:58:03.461Z,100559.19
2023-08-05T23:00:29.946Z,100557.53
2023-08-05T23:02:56.901Z,100550.47
2023-08-05T23:05:23.532Z,100545.41
2023-08-05T23:07:50.058Z,100551.75
2023-08-05T23:10:16.719Z,100546.41
2023-08-05T23:12:43.374Z,100542.75
2023-08-05T23:15:10.457Z,100539.34
2023-08-05T23:17:37.006Z,100540.06
2023-08-05T23:20:05.501Z,100540.91
2023-08-05T23:22:32.051Z,100533.00
2023-08-05T23:24:58.683Z,100535.84
2023-08-05T23:27:25.282Z,100536.69
2023-08-05T23:29:52.498Z,100539.53
2023-08-05T23:32:18.955Z,100532.44
2023-08-05T23:34:45.427Z,100528.94
2023-08-05T23:37:12.147Z,100525.94
2023-08-05T23:39:38.769Z,100520.88
2023-08-05T23:42:05.465Z,100520.75
2023-08-05T23:44:32.117Z,100522.03
2023-08-05T23:46:58.909Z,100518.81
2023-08-05T23:49:25.673Z,100522.03
2023-08-05T23:51:52.615Z,100514.81
2023-08-05T23:54:19.326Z,100519.34
2023-08-05T23:56:45.992Z,100519.22
2023-08-05T23:59:12.497Z,100527.41
